Time;durP1;ratioP1;P1;durP2;ratioP2;P2;SDS_P1;SDS_P2;PMS_P1;PMS_P2;Temp;Humidity;BMP_temperature;BMP_pressure;BME280_temperature;BME280_humidity;BME280_pressure;Samples;Min_cycle;Max_cycle;Signal;HPM_P1;HPM_P2
2022/09/27 00:00:59;;;;;;;0.65;0.10;;;21.70;50.50;;;;;;5059369;28;20041;-57
2022/09/27 00:03:26;;;;;;;0.47;0.10;;;21.70;50.50;;;;;;5061928;28;20055;-58
2022/09/27 00:06:04;;;;;;;0.50;0.47;;;21.70;50.50;;;;;;5064890;28;20041;-59
2022/09/27 00:08:32;;;;;;;1.65;0.20;;;21.70;50.40;;;;;;5062763;28;20554;-59
2022/09/27 00:11:00;;;;;;;0.13;0.13;;;21.70;50.50;;;;;;5066035;28;20040;-59
2022/09/27 00:13:28;;;;;;;0.40;0.10;;;21.70;50.40;;;;;;5066848;28;20048;-59
2022/09/27 00:16:03;;;;;;;2.30;0.10;;;21.70;50.40;;;;;;5066443;28;20052;-59
2022/09/27 00:18:31;;;;;;;1.30;0.20;;;21.70;50.30;;;;;;5053667;28;20060;-60
2022/09/27 00:21:05;;;;;;;0.63;0.10;;;21.60;50.30;;;;;;5047395;28;20072;-58
2022/09/27 00:23:33;;;;;;;0.10;0.10;;;21.70;50.40;;;;;;5059829;28;20625;-58
2022/09/27 00:26:00;;;;;;;2.08;0.10;;;21.60;50.20;;;;;;5066128;28;20051;-58
2022/09/27 00:28:28;;;;;;;1.77;0.30;;;21.60;50.20;;;;;;5053642;28;20088;-58
2022/09/27 00:30:55;;;;;;;2.00;0.10;;;21.60;50.20;;;;;;5067060;28;20044;-58
2022/09/27 00:33:23;;;;;;;0.50;0.00;;;21.60;50.20;;;;;;5051958;28;20061;-58
2022/09/27 00:35:50;;;;;;;1.38;0.22;;;21.60;50.20;;;;;;5051911;28;20469;-58
2022/09/27 00:38:17;;;;;;;1.75;0.13;;;21.60;50.20;;;;;;5046087;28;20080;-59
2022/09/27 00:40:45;;;;;;;1.90;0.10;;;21.60;50.20;;;;;;5053255;28;20074;-59
2022/09/27 00:43:17;;;;;;;1.45;0.00;;;21.60;50.20;;;;;;5055723;28;20109;-59
2022/09/27 00:45:49;;;;;;;0.93;0.00;;;21.60;50.20;;;;;;5068927;28;20102;-58
2022/09/27 00:48:22;;;;;;;0.68;0.45;;;21.60;50.20;;;;;;5067790;28;20071;-58
2022/09/27 00:50:55;;;;;;;3.80;0.10;;;21.60;50.20;;;;;;5049657;28;20125;-58
2022/09/27 00:53:29;;;;;;;0.40;0.10;;;21.50;50.20;;;;;;5050387;28;20098;-58
2022/09/27 00:55:59;;;;;;;0.82;0.10;;;21.50;50.20;;;;;;5061505;28;20109;-58
2022/09/27 00:58:30;;;;;;;0.50;0.10;;;21.50;50.30;;;;;;5063518;28;20056;-58
2022/09/27 01:01:01;;;;;;;2.53;0.15;;;21.50;50.20;;;;;;5070346;28;20114;-57
2022/09/27 01:03:44;;;;;;;0.85;0.10;;;21.50;50.20;;;;;;5069796;28;20047;-57
2022/09/27 01:06:13;;;;;;;0.47;0.10;;;21.60;50.20;;;;;;5078986;28;20075;-57
2022/09/27 01:08:40;;;;;;;0.85;0.10;;;21.50;50.30;;;;;;5064247;28;20049;-59
2022/09/27 01:11:14;;;;;;;4.55;0.20;;;21.50;50.30;;;;;;5061761;28;20040;-57
2022/09/27 01:13:54;;;;;;;1.23;0.52;;;21.50;50.30;;;;;;5062718;28;20083;-61
2022/09/27 01:16:29;;;;;;;1.35;0.10;;;21.50;50.30;;;;;;5067877;28;20102;-58
2022/09/27 01:19:09;;;;;;;2.42;0.10;;;21.50;50.50;;;;;;5068043;28;20126;-60
2022/09/27 01:25:07;;;;;;;1.92;0.73;;;21.50;50.40;;;;;;4727517;22;20056;-59
2022/09/27 01:27:58;;;;;;;1.00;0.25;;;21.50;50.50;;;;;;5033793;28;20045;-60
2022/09/27 01:30:30;;;;;;;0.88;0.10;;;21.50;50.60;;;;;;4973097;28;20127;-59
2022/09/27 01:33:10;;;;;;;0.95;0.43;;;21.40;51.10;;;;;;4972239;28;20050;-60
2022/09/27 01:35:51;;;;;;;0.10;0.10;;;21.40;50.50;;;;;;4977678;28;20604;-58
2022/09/27 01:38:24;;;;;;;0.40;0.10;;;21.40;50.60;;;;;;4988217;28;20583;-62
2022/09/27 01:40:59;;;;;;;1.75;0.10;;;21.40;50.60;;;;;;4971287;28;20051;-58
2022/09/27 01:43:48;;;;;;;1.30;0.22;;;21.40;50.70;;;;;;4969830;28;20526;-59
2022/09/27 01:46:25;;;;;;;1.00;0.10;;;21.40;50.70;;;;;;4969888;28;20501;-58
2022/09/27 01:49:12;;;;;;;1.48;0.10;;;21.40;50.70;;;;;;4969689;28;20051;-57
2022/09/27 01:51:44;;;;;;;0.30;0.20;;;21.40;50.70;;;;;;4969627;28;20050;-58
2022/09/27 01:54:16;;;;;;;1.90;0.17;;;21.40;50.60;;;;;;4971659;28;20061;-58
2022/09/27 01:57:04;;;;;;;0.57;0.57;;;21.40;50.70;;;;;;4975066;28;20046;-59
2022/09/27 01:59:41;;;;;;;2.42;0.10;;;21.30;50.60;;;;;;4974377;28;20074;-60
2022/09/27 02:02:38;;;;;;;0.90;0.10;;;21.40;50.60;;;;;;4976137;28;20058;-60
2022/09/27 02:05:41;;;;;;;2.33;0.10;;;21.30;50.60;;;;;;4952340;28;20074;-60
2022/09/27 02:08:36;;;;;;;0.63;0.10;;;21.30;50.70;;;;;;5031136;28;20084;-59
2022/09/27 02:11:12;;;;;;;2.97;0.43;;;21.30;50.70;;;;;;5056847;28;20521;-58
2022/09/27 02:13:48;;;;;;;1.55;0.10;;;21.30;50.70;;;;;;5048620;28;20051;-58
2022/09/27 02:16:47;;;;;;;1.25;0.10;;;21.30;50.70;;;;;;5048806;28;20049;-57
2022/09/27 02:19:26;;;;;;;2.03;0.20;;;21.30;50.80;;;;;;5048931;28;20087;-59
2022/09/27 02:22:00;;;;;;;1.58;0.38;;;21.30;50.80;;;;;;5047780;28;20044;-58
2022/09/27 02:24:37;;;;;;;1.80;0.75;;;21.30;50.80;;;;;;5047215;28;20056;-58
2022/09/27 02:27:15;;;;;;;1.85;0.10;;;21.30;50.70;;;;;;5048000;28;20053;-60
2022/09/27 02:29:50;;;;;;;0.55;0.10;;;21.30;50.70;;;;;;5048146;28;20041;-60
2022/09/27 02:32:17;;;;;;;1.20;0.10;;;21.30;50.70;;;;;;5048578;28;20073;-59
2022/09/27 02:34:47;;;;;;;0.60;0.10;;;21.30;50.70;;;;;;5048468;28;20072;-60
2022/09/27 02:37:14;;;;;;;2.05;0.10;;;21.20;50.60;;;;;;5048045;28;20052;-60
2022/09/27 02:39:42;;;;;;;3.25;0.10;;;21.30;50.70;;;;;;5041080;28;20592;-60
2022/09/27 02:42:10;;;;;;;1.40;0.10;;;21.30;50.70;;;;;;5064268;28;20045;-60
2022/09/27 02:44:39;;;;;;;2.15;0.10;;;21.20;50.60;;;;;;5064309;28;20044;-60
2022/09/27 02:47:24;;;;;;;0.32;0.10;;;21.20;50.60;;;;;;5049164;28;20148;-57
2022/09/27 02:50:07;;;;;;;1.13;0.10;;;21.20;50.60;;;;;;5063454;28;20412;-57
2022/09/27 02:52:54;;;;;;;1.58;0.10;;;21.20;50.60;;;;;;5048516;28;20040;-57
2022/09/27 02:55:30;;;;;;;0.22;0.08;;;21.20;50.60;;;;;;5053973;28;20037;-57
2022/09/27 02:58:14;;;;;;;1.98;0.20;;;21.20;50.70;;;;;;5047303;28;20423;-55
2022/09/27 03:01:02;;;;;;;1.08;0.10;;;21.20;51.20;;;;;;5041176;28;20051;-58
2022/09/27 03:03:58;;;;;;;4.05;0.10;;;21.20;50.60;;;;;;5044959;28;20061;-57
2022/09/27 03:06:29;;;;;;;1.55;0.52;;;21.10;50.60;;;;;;5063240;28;20131;-59
2022/09/27 03:08:56;;;;;;;1.63;0.10;;;21.10;50.60;;;;;;5062807;28;20051;-58
2022/09/27 03:11:24;;;;;;;0.17;0.15;;;21.20;51.00;;;;;;5062242;28;20037;-60
2022/09/27 03:13:51;;;;;;;0.15;0.10;;;21.20;50.60;;;;;;5048441;28;20048;-60
2022/09/27 03:16:18;;;;;;;1.45;0.10;;;21.10;50.60;;;;;;5046777;28;20049;-58
2022/09/27 03:19:08;;;;;;;2.25;0.40;;;21.10;50.60;;;;;;5047076;28;20049;-59
2022/09/27 03:21:55;;;;;;;0.00;0.00;;;21.10;50.60;;;;;;5049030;28;20036;-58
2022/09/27 03:24:23;;;;;;;0.85;0.35;;;21.10;50.60;;;;;;5042133;28;20076;-59
2022/09/27 03:26:51;;;;;;;0.10;0.10;;;21.10;50.60;;;;;;5044806;28;20536;-58
2022/09/27 03:29:18;;;;;;;1.80;0.10;;;21.10;50.50;;;;;;5046616;28;20128;-61
2022/09/27 03:31:51;;;;;;;1.23;0.03;;;21.10;50.50;;;;;;5046914;28;20039;-61
2022/09/27 03:34:32;;;;;;;1.45;0.10;;;21.10;50.60;;;;;;5040660;28;20077;-58
2022/09/27 03:37:00;;;;;;;1.35;0.30;;;21.10;50.60;;;;;;5042404;28;20041;-59
2022/09/27 03:39:28;;;;;;;1.58;0.15;;;21.10;50.60;;;;;;5047670;28;20060;-58
2022/09/27 03:41:55;;;;;;;0.43;0.10;;;21.10;50.50;;;;;;5040565;28;20193;-57
2022/09/27 03:44:22;;;;;;;0.25;0.10;;;21.10;50.50;;;;;;5039875;28;20425;-60
2022/09/27 03:46:49;;;;;;;0.25;0.10;;;21.10;50.50;;;;;;5047651;28;20103;-57
2022/09/27 03:49:16;;;;;;;0.90;0.30;;;21.10;50.50;;;;;;5062341;28;20142;-58
2022/09/27 03:51:43;;;;;;;1.63;0.20;;;21.20;50.60;;;;;;5052756;28;20045;-58
2022/09/27 03:54:12;;;;;;;1.48;0.20;;;21.10;50.50;;;;;;5045755;28;20124;-59
2022/09/27 03:56:39;;;;;;;1.48;0.15;;;21.10;50.50;;;;;;5047226;28;20118;-58
2022/09/27 03:59:07;;;;;;;1.40;0.17;;;21.10;50.50;;;;;;5045966;28;20090;-58
2022/09/27 04:01:55;;;;;;;0.30;0.10;;;21.10;50.50;;;;;;5047431;28;20049;-58
2022/09/27 04:04:42;;;;;;;2.72;0.03;;;21.10;50.50;;;;;;5047075;28;20065;-60
2022/09/27 04:07:11;;;;;;;0.10;0.10;;;21.10;50.50;;;;;;5045902;28;20045;-61
2022/09/27 04:09:40;;;;;;;0.43;0.10;;;21.10;50.50;;;;;;5045704;28;20775;-59
2022/09/27 04:12:09;;;;;;;0.50;0.13;;;21.10;50.50;;;;;;5045961;28;20048;-59
2022/09/27 04:14:36;;;;;;;4.78;0.10;;;21.10;50.50;;;;;;5046012;28;20044;-60
2022/09/27 04:17:40;;;;;;;0.75;0.57;;;21.10;50.50;;;;;;5020953;28;20497;-57
2022/09/27 04:20:36;;;;;;;0.30;0.03;;;21.10;50.50;;;;;;5002516;28;20046;-60
2022/09/27 04:23:12;;;;;;;0.40;0.20;;;21.10;50.60;;;;;;5004202;28;20049;-61
2022/09/27 04:25:46;;;;;;;1.58;0.10;;;21.00;50.50;;;;;;5002374;28;20050;-59
2022/09/27 04:28:22;;;;;;;1.02;0.10;;;21.00;50.50;;;;;;5011654;28;20851;-59
2022/09/27 04:30:49;;;;;;;1.08;0.20;;;21.00;51.10;;;;;;5010988;28;20472;-61
2022/09/27 04:33:35;;;;;;;1.55;0.35;;;21.10;50.50;;;;;;5027847;28;20119;-60
2022/09/27 04:36:25;;;;;;;0.20;0.05;;;21.00;50.50;;;;;;5011643;28;20130;-60
2022/09/27 04:39:04;;;;;;;0.25;0.25;;;21.00;50.50;;;;;;5011195;28;20081;-61
2022/09/27 04:41:35;;;;;;;0.57;0.52;;;21.10;50.60;;;;;;5011272;28;20144;-59
2022/09/27 04:44:05;;;;;;;1.33;0.10;;;21.00;50.50;;;;;;5011255;28;20057;-59
2022/09/27 04:46:33;;;;;;;2.22;1.27;;;21.00;50.50;;;;;;5027702;28;20513;-59
2022/09/27 04:49:00;;;;;;;3.22;0.10;;;21.00;50.50;;;;;;5010783;28;20864;-58
2022/09/27 04:51:29;;;;;;;0.17;0.10;;;21.00;50.50;;;;;;5027658;28;20053;-59
2022/09/27 04:53:57;;;;;;;0.85;0.00;;;21.00;50.50;;;;;;5005479;28;20577;-60
2022/09/27 04:56:28;;;;;;;0.45;0.45;;;21.00;50.50;;;;;;5011148;28;20053;-59
2022/09/27 04:58:57;;;;;;;0.10;0.08;;;21.00;50.50;;;;;;5048923;28;20037;-60
2022/09/27 05:01:24;;;;;;;0.17;0.00;;;21.00;50.60;;;;;;5049279;28;20044;-61
2022/09/27 05:03:57;;;;;;;0.28;0.10;;;21.00;50.60;;;;;;5050673;28;20041;-60
2022/09/27 05:06:25;;;;;;;3.45;0.43;;;21.00;50.60;;;;;;5045487;28;20053;-60
2022/09/27 05:08:55;;;;;;;0.77;0.77;;;21.10;50.60;;;;;;5056316;28;20132;-58
2022/09/27 05:11:26;;;;;;;0.20;0.10;;;21.00;50.50;;;;;;5048012;28;20473;-59
2022/09/27 05:14:27;;;;;;;3.92;0.28;;;21.10;50.60;;;;;;5024271;28;20077;-58
2022/09/27 05:17:12;;;;;;;1.73;0.10;;;21.10;51.30;;;;;;5023506;28;20065;-56
2022/09/27 05:20:06;;;;;;;0.80;0.10;;;21.00;50.60;;;;;;4997041;28;20047;-60
2022/09/27 05:22:43;;;;;;;1.65;0.00;;;21.00;50.70;;;;;;4997079;28;20046;-59
2022/09/27 05:25:10;;;;;;;0.32;0.20;;;21.00;50.70;;;;;;4979916;28;20485;-60
2022/09/27 05:27:38;;;;;;;0.50;0.03;;;21.00;50.70;;;;;;4997560;28;20050;-59
2022/09/27 05:30:07;;;;;;;2.35;0.38;;;21.00;50.80;;;;;;4973019;28;20086;-58
2022/09/27 05:32:44;;;;;;;2.75;1.17;;;21.00;50.80;;;;;;4988872;28;20038;-59
2022/09/27 05:35:26;;;;;;;0.30;0.10;;;20.90;50.80;;;;;;4989418;28;20459;-60
2022/09/27 05:37:55;;;;;;;0.47;0.10;;;21.00;50.90;;;;;;4983206;28;20465;-58
2022/09/27 05:40:24;;;;;;;0.25;0.10;;;20.90;50.90;;;;;;4988890;28;20514;-59
2022/09/27 05:42:52;;;;;;;2.15;0.40;;;20.90;51.00;;;;;;4983326;28;20137;-57
2022/09/27 05:45:22;;;;;;;1.48;0.10;;;20.90;51.00;;;;;;4989211;28;20050;-59
2022/09/27 05:47:56;;;;;;;0.60;0.20;;;20.90;51.10;;;;;;4988613;28;20630;-59
2022/09/27 05:50:24;;;;;;;0.45;0.10;;;20.90;51.10;;;;;;4984922;28;20102;-68
2022/09/27 05:52:51;;;;;;;1.30;0.10;;;20.90;51.20;;;;;;4971778;28;20061;-60
2022/09/27 05:55:20;;;;;;;2.47;0.10;;;20.90;51.50;;;;;;4988282;28;20054;-55
2022/09/27 05:57:57;;;;;;;12.07;0.65;;;20.90;51.80;;;;;;5037936;28;20094;-47
2022/09/27 06:00:32;;;;;;;4.47;0.10;;;20.90;52.00;;;;;;5048259;28;20354;-52
2022/09/27 06:03:02;;;;;;;0.98;0.10;;;21.00;52.00;;;;;;5047349;28;20063;-48
2022/09/27 06:06:04;;;;;;;18.23;1.00;;;21.10;52.10;;;;;;5007290;28;20446;-47
2022/09/27 06:08:38;;;;;;;3.80;0.10;;;21.10;52.20;;;;;;4988577;28;20663;-47
2022/09/27 06:11:08;;;;;;;3.47;0.70;;;21.20;52.30;;;;;;5007576;28;20050;-49
2022/09/27 06:13:36;;;;;;;4.13;0.30;;;21.20;52.30;;;;;;5007869;28;20604;-49
2022/09/27 06:16:05;;;;;;;1.17;0.40;;;21.30;52.50;;;;;;5007183;28;20108;-51
2022/09/27 06:18:33;;;;;;;4.00;0.20;;;21.30;52.70;;;;;;4990761;28;20057;-49
2022/09/27 06:21:00;;;;;;;2.15;0.38;;;21.50;52.80;;;;;;5007239;28;20082;-47
2022/09/27 06:23:31;;;;;;;1.23;0.10;;;21.60;52.90;;;;;;4990334;28;20077;-49
2022/09/27 06:26:02;;;;;;;0.28;0.28;;;21.60;52.70;;;;;;5005926;28;20046;-51
2022/09/27 06:28:51;;;;;;;1.25;0.75;;;21.80;52.60;;;;;;5001157;28;20077;-49
2022/09/27 06:31:20;;;;;;;1.20;0.00;;;22.00;52.50;;;;;;4974079;28;20049;-47
2022/09/27 06:33:50;;;;;;;0.43;0.10;;;22.10;52.20;;;;;;4990645;28;20046;-47
2022/09/27 06:36:18;;;;;;;0.20;0.10;;;22.20;51.80;;;;;;4990657;28;20056;-48
2022/09/27 06:38:47;;;;;;;0.65;0.20;;;22.40;51.50;;;;;;4990077;28;20050;-51
2022/09/27 06:41:18;;;;;;;2.35;0.10;;;22.60;51.20;;;;;;4988324;28;20042;-52
2022/09/27 06:44:06;;;;;;;1.23;0.10;;;22.70;50.80;;;;;;5047642;28;20052;-50
2022/09/27 06:47:04;;;;;;;1.40;0.50;;;22.90;50.40;;;;;;5048993;28;20052;-49
2022/09/27 06:49:45;;;;;;;0.88;0.17;;;23.00;50.10;;;;;;5049036;28;20485;-47
2022/09/27 06:52:14;;;;;;;1.23;0.47;;;23.20;49.80;;;;;;5047836;28;20128;-49
2022/09/27 06:54:41;;;;;;;2.60;0.00;;;23.30;49.30;;;;;;5043346;28;20041;-48
2022/09/27 06:57:08;;;;;;;1.10;0.28;;;23.40;48.90;;;;;;5056121;28;20037;-49
2022/09/27 07:02:40;;;;;;;0.68;0.00;;;23.70;48.30;;;;;;5049174;28;20041;-44
2022/09/27 07:05:17;;;;;;;1.02;0.20;;;23.80;48.00;;;;;;5048781;28;20049;-46
2022/09/27 07:07:59;;;;;;;2.15;0.10;;;23.90;47.70;;;;;;5063901;28;20048;-47
2022/09/27 07:10:28;;;;;;;2.25;0.00;;;24.00;47.30;;;;;;5063860;28;20041;-46
2022/09/27 07:12:57;;;;;;;1.58;0.20;;;24.10;47.00;;;;;;5063492;28;20069;-49
2022/09/27 07:15:25;;;;;;;1.00;0.10;;;24.30;46.80;;;;;;5061689;28;20528;-48
2022/09/27 07:17:58;;;;;;;0.32;0.00;;;24.40;46.40;;;;;;5059689;28;20033;-49
2022/09/27 07:20:28;;;;;;;2.80;0.10;;;24.50;46.10;;;;;;5048805;28;20053;-54
2022/09/27 07:22:55;;;;;;;1.75;0.10;;;24.50;45.90;;;;;;5048154;28;20041;-51
2022/09/27 07:25:22;;;;;;;11.15;0.35;;;24.50;45.70;;;;;;5046566;28;20049;-50
2022/09/27 07:27:51;;;;;;;7.35;1.55;;;24.40;45.50;;;;;;5047166;28;20612;-52
2022/09/27 07:30:20;;;;;;;0.82;0.10;;;24.50;45.50;;;;;;5047306;28;20421;-48
2022/09/27 07:32:47;;;;;;;1.83;0.10;;;24.60;45.20;;;;;;5048718;28;20157;-51
2022/09/27 07:35:16;;;;;;;0.45;0.22;;;24.80;44.90;;;;;;5047067;28;20124;-52
2022/09/27 07:37:44;;;;;;;2.20;0.30;;;24.90;44.40;;;;;;5047252;28;20068;-55
2022/09/27 07:40:12;;;;;;;0.60;0.00;;;25.10;44.20;;;;;;5047137;28;20041;-51
2022/09/27 07:42:40;;;;;;;3.08;0.20;;;25.20;44.00;;;;;;5047021;28;20124;-51
2022/09/27 07:45:09;;;;;;;0.20;0.10;;;25.30;43.80;;;;;;5046858;28;20052;-55
2022/09/27 07:47:50;;;;;;;3.95;0.10;;;25.30;43.50;;;;;;5048455;28;20048;-52
2022/09/27 07:50:40;;;;;;;1.00;0.45;;;25.40;43.50;;;;;;5049831;28;20099;-52
2022/09/27 07:53:38;;;;;;;0.80;0.10;;;25.40;43.30;;;;;;5052460;28;20212;-51
2022/09/27 07:56:24;;;;;;;2.10;0.10;;;25.40;43.20;;;;;;5049215;28;20455;-50
2022/09/27 07:58:51;;;;;;;1.52;0.10;;;25.50;43.20;;;;;;5067509;28;20519;-62
2022/09/27 08:01:19;;;;;;;1.38;0.10;;;25.50;43.10;;;;;;5067576;28;20090;-65
2022/09/27 08:03:48;;;;;;;0.52;0.10;;;25.50;43.10;;;;;;5067440;28;20120;-63
2022/09/27 08:06:17;;;;;;;1.27;0.10;;;25.50;43.00;;;;;;5067334;28;20044;-62
2022/09/27 08:08:46;;;;;;;1.23;0.10;;;25.50;42.90;;;;;;5067265;28;20055;-58
2022/09/27 08:11:15;;;;;;;0.30;0.10;;;25.50;42.90;;;;;;5066707;28;20045;-61
2022/09/27 08:13:44;;;;;;;1.75;0.73;;;25.60;42.90;;;;;;5065581;28;20048;-60
2022/09/27 08:16:13;;;;;;;1.38;0.10;;;25.60;42.80;;;;;;5065041;28;20121;-66
2022/09/27 08:19:03;;;;;;;1.35;0.10;;;25.60;42.80;;;;;;5009507;28;20112;-57
2022/09/27 08:22:08;;;;;;;2.63;0.20;;;25.60;42.70;;;;;;4888895;29;20391;-57
2022/09/27 08:24:43;;;;;;;3.05;0.10;;;25.70;42.80;;;;;;4872534;29;20104;-56
2022/09/27 08:27:19;;;;;;;4.22;0.25;;;25.70;42.80;;;;;;4894226;29;20048;-55
2022/09/27 08:29:49;;;;;;;2.92;0.20;;;25.70;42.70;;;;;;4878483;29;20059;-56
2022/09/27 08:32:18;;;;;;;0.65;0.10;;;25.60;42.50;;;;;;4894408;29;20458;-56
2022/09/27 08:34:45;;;;;;;4.05;0.20;;;25.50;42.40;;;;;;4878783;29;20056;-56
2022/09/27 08:37:14;;;;;;;0.80;0.10;;;25.40;43.10;;;;;;4879324;29;20053;-58
2022/09/27 08:39:42;;;;;;;0.93;0.00;;;25.30;42.60;;;;;;4864997;29;20053;-55
2022/09/27 08:42:26;;;;;;;1.30;0.10;;;25.20;42.90;;;;;;4894605;29;20096;-51
2022/09/27 08:45:01;;;;;;;5.00;0.28;;;25.10;43.00;;;;;;4878178;29;20059;-55
2022/09/27 08:47:33;;;;;;;1.25;0.10;;;24.90;43.20;;;;;;4878395;29;20136;-56
2022/09/27 08:50:06;;;;;;;0.65;0.10;;;24.90;43.50;;;;;;4901816;29;20056;-61
2022/09/27 08:52:40;;;;;;;1.58;0.10;;;24.80;43.60;;;;;;4893952;29;20094;-62
2022/09/27 08:55:21;;;;;;;1.05;0.20;;;24.70;43.70;;;;;;4884519;28;20059;-55
2022/09/27 08:57:53;;;;;;;0.52;0.10;;;24.70;43.90;;;;;;5049285;28;20044;-55
2022/09/27 09:00:20;;;;;;;3.53;0.20;;;24.60;44.30;;;;;;5055113;28;20048;-56
2022/09/27 09:02:48;;;;;;;1.15;0.10;;;24.60;44.40;;;;;;5060920;28;20103;-63
2022/09/27 09:05:23;;;;;;;3.00;0.25;;;24.60;44.40;;;;;;5050443;28;20049;-59
2022/09/27 09:08:05;;;;;;;1.65;0.30;;;24.60;44.40;;;;;;5049237;28;21151;-60
2022/09/27 09:13:52;;;;;;;0.52;0.22;;;24.70;44.40;;;;;;5049480;28;20090;-52
2022/09/27 09:16:30;;;;;;;3.42;0.10;;;24.70;44.40;;;;;;5049251;28;20108;-51
2022/09/27 09:19:15;;;;;;;2.65;0.20;;;24.60;44.40;;;;;;5050029;28;20140;-50
2022/09/27 09:22:24;;;;;;;0.43;0.10;;;24.50;44.50;;;;;;5048331;28;20527;-51
2022/09/27 09:25:06;;;;;;;4.38;0.52;;;24.40;44.70;;;;;;5043654;28;20052;-49
2022/09/27 09:27:40;;;;;;;2.47;0.15;;;24.40;44.80;;;;;;5049250;28;20404;-52
2022/09/27 09:30:22;;;;;;;3.63;0.10;;;24.30;44.70;;;;;;5049366;28;20045;-50
2022/09/27 09:33:14;;;;;;;5.85;0.15;;;24.20;44.70;;;;;;5049593;28;20037;-50
2022/09/27 09:35:48;;;;;;;2.92;0.10;;;24.20;45.00;;;;;;5049227;28;20496;-50
2022/09/27 09:38:20;;;;;;;4.10;0.68;;;24.10;45.00;;;;;;5048793;28;20623;-49
2022/09/27 09:40:56;;;;;;;1.00;0.10;;;24.10;45.60;;;;;;5065087;28;20053;-49
2022/09/27 09:43:30;;;;;;;1.55;0.10;;;24.10;45.10;;;;;;5065711;28;20484;-51
2022/09/27 09:46:03;;;;;;;1.35;0.10;;;24.00;45.10;;;;;;5065226;28;20147;-49
2022/09/27 09:48:38;;;;;;;0.75;0.10;;;23.90;45.10;;;;;;5065085;28;20165;-48
2022/09/27 09:51:09;;;;;;;5.30;0.13;;;23.90;45.20;;;;;;5043185;28;20052;-53
2022/09/27 09:53:41;;;;;;;2.10;0.20;;;23.90;45.20;;;;;;5056560;28;20048;-50
2022/09/27 09:56:17;;;;;;;0.30;0.13;;;23.80;45.20;;;;;;5048523;28;20116;-48
2022/09/27 09:58:49;;;;;;;0.60;0.10;;;23.90;45.40;;;;;;5049135;28;20562;-48
2022/09/27 10:01:23;;;;;;;0.38;0.10;;;23.90;45.40;;;;;;5048930;28;20128;-50
2022/09/27 10:03:50;;;;;;;0.20;0.10;;;23.90;45.30;;;;;;5065022;28;20086;-52
2022/09/27 10:06:19;;;;;;;1.80;0.20;;;23.90;45.20;;;;;;5065068;28;20095;-53
2022/09/27 10:08:47;;;;;;;0.60;0.00;;;23.90;45.10;;;;;;5064969;28;20496;-51
2022/09/27 10:11:37;;;;;;;0.38;0.30;;;23.90;45.10;;;;;;5050410;28;20037;-50
2022/09/27 10:14:12;;;;;;;2.60;0.10;;;23.80;44.90;;;;;;5047606;28;20045;-51
2022/09/27 10:16:42;;;;;;;1.17;0.28;;;23.80;44.90;;;;;;5065117;28;20048;-51
2022/09/27 10:19:11;;;;;;;0.82;0.10;;;23.80;44.80;;;;;;5048992;28;20048;-50
2022/09/27 10:21:41;;;;;;;0.73;0.10;;;23.80;44.80;;;;;;5049512;28;20069;-51
2022/09/27 10:24:10;;;;;;;4.85;0.10;;;23.80;44.80;;;;;;5047800;28;20607;-51
2022/09/27 10:27:02;;;;;;;0.52;0.15;;;23.80;44.80;;;;;;5049334;28;20045;-51
2022/09/27 10:29:34;;;;;;;0.77;0.10;;;23.70;44.80;;;;;;5048175;28;20107;-50
2022/09/27 10:32:03;;;;;;;0.30;0.10;;;23.70;44.80;;;;;;5048230;28;20083;-49
2022/09/27 10:34:42;;;;;;;0.35;0.10;;;23.70;44.70;;;;;;5048142;28;20128;-53
2022/09/27 10:37:17;;;;;;;0.32;0.00;;;23.70;44.80;;;;;;5047885;28;20051;-52
2022/09/27 10:40:28;;;;;;;0.10;0.00;;;23.70;44.80;;;;;;5049174;28;20051;-51
2022/09/27 10:42:58;;;;;;;0.55;0.20;;;23.70;44.90;;;;;;5048035;28;20429;-52
2022/09/27 10:45:37;;;;;;;0.50;0.30;;;23.60;45.00;;;;;;5047821;28;20045;-52
2022/09/27 10:48:19;;;;;;;1.95;0.10;;;23.60;45.30;;;;;;5064492;28;20052;-52
2022/09/27 10:50:59;;;;;;;0.57;0.10;;;23.50;45.30;;;;;;5063845;28;20053;-50
2022/09/27 10:53:36;;;;;;;0.30;0.10;;;23.60;45.50;;;;;;5064096;28;20416;-49
2022/09/27 10:56:22;;;;;;;1.45;0.10;;;23.50;45.60;;;;;;5046242;28;20053;-52
2022/09/27 10:58:52;;;;;;;0.77;0.20;;;23.50;45.70;;;;;;5047961;28;20646;-49
2022/09/27 11:01:20;;;;;;;1.02;0.10;;;23.50;45.80;;;;;;5047587;28;20045;-51
2022/09/27 11:04:20;;;;;;;0.50;0.10;;;23.50;45.90;;;;;;5049114;28;20587;-52
2022/09/27 11:06:48;;;;;;;3.40;0.10;;;23.40;46.00;;;;;;5028890;28;20511;-50
2022/09/27 11:09:25;;;;;;;1.67;0.22;;;23.40;46.00;;;;;;5047839;28;20048;-52
2022/09/27 11:12:08;;;;;;;0.80;0.10;;;23.40;46.10;;;;;;5049281;28;20420;-53
2022/09/27 11:14:37;;;;;;;2.15;0.10;;;23.40;46.20;;;;;;5048152;28;20041;-50
2022/09/27 11:17:13;;;;;;;3.60;0.10;;;23.40;46.30;;;;;;5045595;28;20041;-52
2022/09/27 11:19:59;;;;;;;0.73;0.10;;;23.40;46.90;;;;;;5028603;28;20064;-50
2022/09/27 11:22:50;;;;;;;1.55;0.10;;;23.40;46.50;;;;;;5041746;28;20044;-47
2022/09/27 11:25:33;;;;;;;0.55;0.20;;;23.30;46.40;;;;;;5053996;28;20053;-46
2022/09/27 11:28:13;;;;;;;2.55;0.15;;;23.30;46.50;;;;;;5047384;28;20032;-46
2022/09/27 11:30:49;;;;;;;2.15;0.17;;;23.30;46.60;;;;;;5048225;28;20477;-48
2022/09/27 11:33:51;;;;;;;0.10;0.00;;;23.30;46.70;;;;;;5046399;28;20044;-46
2022/09/27 11:36:34;;;;;;;0.75;0.20;;;23.20;46.70;;;;;;5063310;28;20091;-50
2022/09/27 11:39:11;;;;;;;0.68;0.10;;;23.20;47.40;;;;;;5063337;28;20037;-48
2022/09/27 11:41:51;;;;;;;1.27;0.47;;;23.20;47.00;;;;;;5063097;28;20041;-49
2022/09/27 11:44:43;;;;;;;2.22;0.28;;;23.20;47.10;;;;;;5046233;28;20051;-49
2022/09/27 11:47:18;;;;;;;0.50;0.10;;;23.20;47.20;;;;;;5043755;28;20045;-47
2022/09/27 11:50:20;;;;;;;0.75;0.17;;;23.10;47.10;;;;;;5062892;28;20048;-48
2022/09/27 11:53:05;;;;;;;1.45;0.10;;;23.20;47.10;;;;;;5063464;28;20098;-48
2022/09/27 11:55:45;;;;;;;1.05;0.10;;;23.20;47.30;;;;;;5052687;28;20049;-49
2022/09/27 11:58:21;;;;;;;0.10;0.10;;;23.20;47.20;;;;;;5047105;28;20049;-51
2022/09/27 12:01:04;;;;;;;0.10;0.10;;;23.20;47.30;;;;;;5046866;28;20044;-50
2022/09/27 12:04:01;;;;;;;1.98;0.13;;;23.30;47.50;;;;;;5041815;28;20527;-49
2022/09/27 12:06:41;;;;;;;0.10;0.03;;;23.30;47.50;;;;;;5049328;28;20049;-55
2022/09/27 12:09:12;;;;;;;0.88;0.30;;;23.30;47.90;;;;;;5046370;28;20037;-60
2022/09/27 12:11:43;;;;;;;0.85;0.10;;;23.30;48.00;;;;;;5042377;28;20465;-58
2022/09/27 12:14:18;;;;;;;1.27;0.00;;;23.40;48.30;;;;;;5046361;28;20551;-60
2022/09/27 12:16:50;;;;;;;1.52;0.10;;;23.50;48.50;;;;;;5057949;28;20047;-59
2022/09/27 12:19:24;;;;;;;0.70;0.10;;;23.50;48.50;;;;;;5046261;28;20115;-59
2022/09/27 12:22:04;;;;;;;0.20;0.00;;;23.60;48.50;;;;;;5049039;28;20076;-60
2022/09/27 12:24:35;;;;;;;0.80;0.17;;;23.60;48.40;;;;;;5046546;28;20073;-61
2022/09/27 12:27:16;;;;;;;1.38;0.20;;;23.70;48.30;;;;;;5046298;28;20083;-60
2022/09/27 12:29:46;;;;;;;0.20;0.10;;;23.70;48.20;;;;;;5043493;28;20048;-59
2022/09/27 12:32:17;;;;;;;3.60;0.10;;;23.70;48.00;;;;;;5040288;28;20037;-62
2022/09/27 12:34:56;;;;;;;9.80;0.43;;;23.70;48.10;;;;;;5051959;28;20521;-54
2022/09/27 12:37:27;;;;;;;2.58;0.17;;;23.80;48.20;;;;;;5050002;28;20040;-49
2022/09/27 12:39:59;;;;;;;2.58;0.10;;;23.80;48.10;;;;;;5050373;28;20048;-52
2022/09/27 12:42:36;;;;;;;6.38;0.10;;;23.90;48.10;;;;;;5049911;28;20049;-52
2022/09/27 12:45:12;;;;;;;5.43;0.82;;;23.90;47.90;;;;;;5041382;28;20563;-50
2022/09/27 12:48:01;;;;;;;4.47;0.30;;;23.90;47.90;;;;;;5057991;28;20130;-58
2022/09/27 12:50:36;;;;;;;1.20;0.10;;;24.00;47.90;;;;;;5049854;28;20057;-60
2022/09/27 12:53:08;;;;;;;2.05;0.10;;;24.00;47.90;;;;;;5049542;28;20553;-59
2022/09/27 12:56:01;;;;;;;0.98;0.20;;;24.10;47.90;;;;;;5042834;28;20507;-56
2022/09/27 12:58:59;;;;;;;0.57;0.30;;;24.10;47.90;;;;;;4992217;28;20599;-59
2022/09/27 13:01:42;;;;;;;2.25;0.10;;;24.20;47.90;;;;;;5005724;28;20506;-58
2022/09/27 13:04:31;;;;;;;1.40;0.20;;;24.30;47.90;;;;;;5007898;28;20041;-58
2022/09/27 13:07:23;;;;;;;1.77;0.10;;;24.30;48.30;;;;;;4988965;28;20141;-59
2022/09/27 13:10:12;;;;;;;2.70;0.13;;;24.30;47.60;;;;;;4991998;28;20050;-61
2022/09/27 13:12:48;;;;;;;2.28;0.32;;;24.40;47.50;;;;;;4993891;28;20061;-60
2022/09/27 13:15:22;;;;;;;2.38;0.52;;;24.40;47.40;;;;;;4991444;28;20141;-59
2022/09/27 13:17:55;;;;;;;0.52;0.47;;;24.40;47.20;;;;;;5008438;28;20049;-59
2022/09/27 13:20:47;;;;;;;1.55;0.52;;;24.50;47.10;;;;;;4991959;28;20153;-60
2022/09/27 13:23:59;;;;;;;2.13;0.10;;;24.50;47.00;;;;;;5008193;28;20569;-59
2022/09/27 13:26:49;;;;;;;1.00;0.45;;;24.60;46.80;;;;;;4983237;28;20097;-57
2022/09/27 13:29:32;;;;;;;0.25;0.13;;;24.60;46.70;;;;;;5008230;28;20081;-56
2022/09/27 13:32:20;;;;;;;0.93;0.17;;;24.60;46.60;;;;;;4991629;28;20050;-57
2022/09/27 13:35:23;;;;;;;3.85;0.20;;;24.60;46.50;;;;;;5017107;28;20056;-56
2022/09/27 13:37:58;;;;;;;3.50;0.38;;;24.60;46.40;;;;;;5037809;28;20055;-58
2022/09/27 13:41:14;;;;;;;2.22;0.10;;;24.60;46.40;;;;;;5040608;28;20169;-57